Acmar, Alabama
Current Conditions -  °F | °C
As of 10:53 AM on Saturday 25 Oct 2014 (Local Time) from KBHM Reporting Station
Clear Clear  
Wind Chill: 20°   Ceiling: Unl
Heat Index: 20°   Visibility: 10mi
Dew Point:   Wind: 6mph
Humidity: 50%   Direction: NA
Pressure: 30.15"   Gusts: NA
Location:  33.6013°N, 86.5003°W
Report Text: KBHM 251553Z VRB05KT 10SM CLR 20/09 A3015 RMK AO2 SLP205 T02000094
Loading
Personal Weather Stations






























Interactive Weather Map
Tropical Storm Tracking
New forecast layout! Learn more

10-Day Weather Forecast

Advertisements
Track Severe Weather on mobile